createdAt,value
2022-11-12T00:00:03.916Z,19.15
2022-11-12T00:03:25.031Z,15.55
2022-11-12T00:06:45.631Z,16.30
2022-11-12T00:10:07.567Z,16.80
2022-11-12T00:13:28.558Z,18.73
2022-11-12T00:16:49.302Z,18.40
2022-11-12T00:20:10.972Z,17.80
2022-11-12T00:23:31.718Z,17.92
2022-11-12T00:26:52.750Z,17.95
2022-11-12T00:30:13.720Z,19.40
2022-11-12T00:33:34.629Z,19.05
2022-11-12T00:36:55.406Z,18.85
2022-11-12T00:40:16.574Z,19.85
2022-11-12T00:43:37.470Z,19.48
2022-11-12T00:46:58.016Z,19.95
2022-11-12T00:50:18.910Z,21.65
2022-11-12T00:53:39.977Z,21.58
2022-11-12T00:57:01.104Z,19.88
2022-11-12T01:00:22.284Z,20.98
2022-11-12T01:03:44.108Z,20.58
2022-11-12T01:07:05.445Z,19.48
2022-11-12T01:10:26.432Z,19.73
2022-11-12T01:13:53.068Z,20.77
2022-11-12T01:17:13.943Z,20.08
2022-11-12T01:20:38.175Z,19.02
2022-11-12T01:24:00.411Z,18.23
2022-11-12T01:27:21.187Z,19.33
2022-11-12T01:30:41.730Z,19.23
2022-11-12T01:34:07.907Z,17.15
2022-11-12T01:37:28.695Z,16.95
2022-11-12T01:40:49.735Z,15.73
2022-11-12T01:44:21.469Z,15.07
2022-11-12T01:47:44.616Z,12.93
2022-11-12T01:51:07.628Z,14.90
2022-11-12T01:54:28.905Z,13.40
2022-11-12T01:58:18.539Z,13.27
2022-11-12T02:01:39.628Z,12.57
2022-11-12T02:05:01.917Z,12.25
2022-11-12T02:08:24.590Z,12.40
2022-11-12T02:11:45.741Z,12.15
2022-11-12T02:15:07.365Z,11.77
2022-11-12T02:18:28.403Z,11.00
2022-11-12T02:21:49.661Z,9.63
2022-11-12T02:25:14.058Z,10.35
2022-11-12T02:28:35.015Z,9.23
2022-11-12T02:31:55.522Z,10.27
2022-11-12T02:35:16.481Z,11.07
2022-11-12T02:38:37.548Z,11.82
2022-11-12T02:41:58.567Z,11.38
2022-11-12T02:45:20.101Z,11.85
2022-11-12T02:48:40.769Z,12.02
2022-11-12T02:52:01.787Z,11.88
2022-11-12T02:55:22.277Z,12.95
2022-11-12T02:58:42.858Z,13.60
2022-11-12T03:02:03.356Z,13.43
2022-11-12T03:05:25.282Z,12.65
2022-11-12T03:08:46.376Z,13.73
2022-11-12T03:12:07.526Z,14.30
2022-11-12T03:15:30.019Z,13.70
2022-11-12T03:18:50.936Z,14.75
2022-11-12T03:22:11.854Z,13.20
2022-11-12T03:25:33.154Z,13.93
2022-11-12T03:28:53.976Z,12.77
2022-11-12T03:32:14.969Z,13.93
2022-11-12T03:35:36.653Z,14.27
2022-11-12T03:38:57.416Z,13.02
2022-11-12T03:42:18.251Z,12.02
2022-11-12T03:45:40.127Z,13.85
2022-11-12T03:49:02.808Z,11.55
2022-11-12T03:52:23.513Z,12.43
2022-11-12T03:55:44.930Z,13.20
2022-11-12T03:59:05.592Z,14.02
2022-11-12T04:02:26.917Z,11.63
2022-11-12T04:06:06.183Z,11.82
2022-11-12T04:09:26.702Z,11.68
2022-11-12T04:13:06.445Z,11.13
2022-11-12T04:16:45.890Z,11.20
2022-11-12T04:20:25.550Z,10.90
2022-11-12T04:23:46.435Z,10.50
2022-11-12T04:27:08.363Z,10.75
2022-11-12T04:30:29.242Z,11.40
2022-11-12T04:33:49.616Z,11.05
2022-11-12T04:37:10.805Z,10.25
2022-11-12T04:40:51.059Z,11.23
2022-11-12T04:44:30.822Z,10.88
2022-11-12T04:47:51.916Z,11.13
2022-11-12T04:51:31.599Z,11.07
2022-11-12T04:54:53.562Z,11.88
2022-11-12T04:58:14.313Z,10.13
2022-11-12T05:01:35.450Z,9.02
2022-11-12T05:04:56.145Z,11.10
2022-11-12T05:08:17.024Z,10.73
2022-11-12T05:14:57.878Z,9.15
2022-11-12T05:18:18.970Z,10.48
2022-11-12T05:21:59.317Z,10.43
2022-11-12T05:28:41.641Z,9.63
2022-11-12T05:32:02.728Z,10.43
2022-11-12T05:35:23.440Z,9.95
2022-11-12T05:38:44.593Z,11.02
2022-11-12T05:42:12.949Z,10.10
2022-11-12T05:45:34.906Z,10.80
2022-11-12T05:48:55.935Z,9.68
2022-11-12T05:52:16.549Z,9.93
2022-11-12T05:55:37.387Z,10.35
2022-11-12T05:58:58.428Z,8.93
2022-11-12T06:02:19.457Z,9.45
2022-11-12T06:05:40.400Z,8.68
2022-11-12T06:09:01.589Z,10.00
2022-11-12T06:12:22.582Z,10.35
2022-11-12T06:15:43.158Z,9.98
2022-11-12T06:19:03.685Z,9.25
2022-11-12T06:22:24.415Z,9.88
2022-11-12T06:25:45.444Z,10.00
2022-11-12T06:29:06.403Z,8.43
2022-11-12T06:32:27.533Z,8.82
2022-11-12T06:35:48.580Z,9.05
2022-11-12T06:39:10.473Z,9.00
2022-11-12T06:42:30.755Z,8.43
2022-11-12T06:45:51.501Z,9.38
2022-11-12T06:49:12.293Z,9.00
2022-11-12T06:52:32.750Z,8.10
2022-11-12T06:55:53.287Z,8.88
2022-11-12T06:59:13.917Z,8.85
2022-11-12T07:02:34.650Z,8.82
2022-11-12T07:05:55.596Z,9.18
2022-11-12T07:09:16.194Z,8.82
2022-11-12T07:12:36.819Z,8.32
2022-11-12T07:15:59.572Z,8.75
2022-11-12T07:19:20.362Z,8.32
2022-11-12T07:22:41.641Z,8.60
2022-11-12T07:26:29.324Z,9.10
2022-11-12T07:29:50.076Z,7.65
2022-11-12T07:33:10.491Z,7.35
2022-11-12T07:36:31.024Z,7.95
2022-11-12T07:39:51.506Z,8.30
2022-11-12T07:43:11.948Z,8.07
2022-11-12T07:46:32.387Z,8.82
2022-11-12T07:49:52.900Z,8.88
2022-11-12T07:53:14.071Z,8.80
2022-11-12T07:56:35.159Z,8.02
2022-11-12T07:59:56.215Z,9.13
2022-11-12T08:03:17.965Z,8.75
2022-11-12T08:06:39.250Z,8.77
2022-11-12T08:10:00.292Z,9.18
2022-11-12T08:13:21.310Z,8.40
2022-11-12T08:16:41.915Z,8.52
2022-11-12T08:20:02.963Z,8.73
2022-11-12T08:23:23.407Z,8.23
2022-11-12T08:26:43.866Z,7.03
2022-11-12T08:30:07.918Z,6.55
2022-11-12T08:33:28.593Z,8.88
2022-11-12T08:36:50.388Z,9.30
2022-11-12T08:40:11.893Z,9.20
2022-11-12T08:43:32.795Z,8.05
2022-11-12T08:46:53.582Z,7.80
2022-11-12T08:50:14.126Z,9.15
2022-11-12T08:53:35.631Z,8.00
2022-11-12T08:56:56.145Z,8.27
2022-11-12T09:00:17.037Z,8.50
2022-11-12T09:03:37.869Z,8.32
2022-11-12T09:06:58.745Z,8.25
2022-11-12T09:10:19.835Z,8.73
2022-11-12T09:13:40.886Z,8.00
2022-11-12T09:17:01.928Z,7.97
2022-11-12T09:20:23.217Z,8.20
2022-11-12T09:23:43.985Z,7.70
2022-11-12T09:27:04.875Z,8.23
2022-11-12T09:30:25.218Z,8.18
2022-11-12T09:33:45.993Z,8.95
2022-11-12T09:37:06.500Z,7.80
2022-11-12T09:40:51.376Z,7.88
2022-11-12T09:44:20.894Z,8.10
2022-11-12T09:47:53.131Z,8.05
2022-11-12T09:51:28.538Z,8.32
2022-11-12T09:54:55.614Z,7.93
2022-11-12T09:58:18.684Z,8.65
2022-11-12T10:01:54.885Z,8.38
2022-11-12T10:05:24.862Z,8.35
2022-11-12T10:08:53.982Z,8.55
2022-11-12T10:13:02.665Z,8.30
2022-11-12T10:16:50.250Z,8.75
2022-11-12T10:20:21.887Z,7.30
2022-11-12T10:23:48.218Z,8.85
2022-11-12T10:27:37.130Z,8.90
2022-11-12T10:31:02.544Z,9.43
2022-11-12T10:34:24.429Z,9.77
2022-11-12T10:38:06.782Z,9.10
2022-11-12T10:41:32.925Z,8.35
2022-11-12T10:44:53.924Z,8.90
2022-11-12T10:48:29.250Z,10.82
2022-11-12T10:51:58.951Z,10.98
2022-11-12T10:55:25.094Z,11.35
2022-11-12T10:58:45.711Z,10.77
2022-11-12T11:02:17.189Z,11.55
2022-11-12T11:05:49.044Z,13.05
2022-11-12T11:09:12.432Z,11.90
2022-11-12T11:12:34.486Z,11.15
2022-11-12T11:16:04.576Z,10.40
2022-11-12T11:19:36.737Z,10.77
2022-11-12T11:23:04.122Z,11.85
2022-11-12T11:26:36.069Z,12.25
2022-11-12T11:30:08.290Z,13.88
2022-11-12T11:33:57.709Z,13.25
2022-11-12T11:37:27.503Z,14.70
2022-11-12T11:41:30.307Z,13.93
2022-11-12T11:45:09.820Z,13.15
2022-11-12T11:48:39.203Z,14.23
2022-11-12T11:52:07.487Z,15.07
2022-11-12T11:55:43.003Z,15.57
2022-11-12T11:59:20.312Z,15.85
2022-11-12T12:02:58.936Z,14.50
2022-11-12T12:06:27.083Z,15.43
2022-11-12T12:10:30.332Z,12.23
2022-11-12T12:14:32.988Z,11.32
2022-11-12T12:18:24.899Z,15.23
2022-11-12T12:21:50.337Z,15.55
2022-11-12T12:25:16.784Z,13.73
2022-11-12T12:28:43.648Z,12.90
2022-11-12T12:32:29.589Z,14.68
2022-11-12T12:35:56.058Z,14.55
2022-11-12T12:39:26.489Z,15.05
2022-11-12T12:43:00.471Z,14.23
2022-11-12T12:46:25.636Z,13.57
2022-11-12T12:49:48.737Z,13.50
2022-11-12T12:53:15.286Z,13.32
2022-11-12T12:56:36.073Z,12.05
2022-11-12T13:00:34.505Z,12.85
2022-11-12T13:04:04.534Z,12.25
2022-11-12T13:08:06.180Z,11.80
2022-11-12T13:12:00.614Z,12.45
2022-11-12T13:15:43.065Z,11.75
2022-11-12T13:19:04.263Z,11.45
2022-11-12T13:22:25.026Z,11.52
2022-11-12T13:25:45.538Z,12.27
2022-11-12T13:29:23.084Z,12.15
2022-11-12T13:32:47.137Z,11.32
2022-11-12T13:36:25.120Z,11.23
2022-11-12T13:39:46.357Z,11.13
2022-11-12T13:43:12.411Z,10.60
2022-11-12T13:46:34.241Z,10.20
2022-11-12T13:49:57.411Z,11.75
2022-11-12T13:53:23.390Z,12.15
2022-11-12T13:56:44.244Z,11.32
2022-11-12T14:00:22.747Z,11.63
2022-11-12T14:03:46.787Z,11.50
2022-11-12T14:07:45.283Z,11.32
2022-11-12T14:11:41.466Z,11.30
2022-11-12T14:15:39.978Z,10.70
2022-11-12T14:19:26.277Z,10.63
2022-11-12T14:22:48.311Z,11.55
2022-11-12T14:26:12.260Z,11.40
2022-11-12T14:29:35.442Z,10.35
2022-11-12T14:33:08.459Z,10.95
2022-11-12T14:36:30.697Z,11.68
2022-11-12T14:39:51.489Z,11.88
2022-11-12T14:43:38.267Z,12.13
2022-11-12T14:46:59.219Z,12.35
2022-11-12T14:50:23.179Z,12.20
2022-11-12T14:54:09.798Z,12.18
2022-11-12T14:57:31.884Z,12.30
2022-11-12T15:00:54.339Z,12.40
2022-11-12T15:04:21.778Z,12.68
2022-11-12T15:08:02.321Z,12.95
2022-11-12T15:11:32.001Z,13.40
2022-11-12T15:14:54.477Z,13.48
2022-11-12T15:18:20.769Z,13.65
2022-11-12T15:22:01.878Z,13.07
2022-11-12T15:25:30.902Z,13.48
2022-11-12T15:29:28.381Z,14.93
2022-11-12T15:32:49.713Z,13.93
2022-11-12T15:36:19.298Z,14.05
2022-11-12T15:39:45.640Z,14.10
2022-11-12T15:43:16.672Z,13.75
2022-11-12T15:46:38.538Z,13.43
2022-11-12T15:49:59.600Z,14.85
2022-11-12T15:53:20.329Z,15.80
2022-11-12T15:56:41.002Z,14.82
2022-11-12T16:00:08.340Z,15.68
2022-11-12T16:03:30.415Z,14.55
2022-11-12T16:06:51.542Z,14.75
2022-11-12T16:10:17.468Z,14.77
2022-11-12T16:13:38.268Z,14.77
2022-11-12T16:16:59.159Z,15.35
2022-11-12T16:20:30.919Z,14.48
2022-11-12T16:23:52.205Z,15.30
2022-11-12T16:27:16.172Z,18.27
2022-11-12T16:30:36.740Z,20.85
2022-11-12T16:33:57.802Z,23.50
2022-11-12T16:37:18.755Z,23.63
2022-11-12T16:40:40.329Z,25.77
2022-11-12T16:44:01.284Z,25.35
2022-11-12T16:47:23.114Z,25.52
2022-11-12T16:50:44.078Z,24.92
2022-11-12T16:54:05.383Z,22.55
2022-11-12T16:57:26.284Z,23.73
2022-11-12T17:00:50.601Z,22.42
2022-11-12T17:04:11.282Z,20.80
2022-11-12T17:07:32.316Z,21.70
2022-11-12T17:10:53.165Z,19.45
2022-11-12T17:14:14.024Z,22.02
2022-11-12T17:17:34.701Z,20.67
2022-11-12T17:20:55.714Z,20.35
2022-11-12T17:24:17.599Z,19.63
2022-11-12T17:27:38.705Z,19.65
2022-11-12T17:31:07.107Z,20.88
2022-11-12T17:34:27.877Z,19.60
2022-11-12T17:37:48.965Z,19.00
2022-11-12T17:41:10.742Z,16.92
2022-11-12T17:44:31.628Z,19.35
2022-11-12T17:47:52.492Z,16.60
2022-11-12T17:51:15.987Z,19.50
2022-11-12T17:54:36.837Z,18.52
2022-11-12T17:57:57.930Z,16.50
2022-11-12T18:01:24.508Z,16.55
2022-11-12T18:04:45.501Z,16.92
2022-11-12T18:08:06.465Z,17.23
2022-11-12T18:11:29.809Z,17.00
2022-11-12T18:14:50.618Z,15.57
2022-11-12T18:18:11.483Z,17.00
2022-11-12T18:21:31.990Z,18.23
2022-11-12T18:24:53.052Z,17.92
2022-11-12T18:28:14.020Z,17.02
2022-11-12T18:31:34.781Z,15.98
2022-11-12T18:34:55.409Z,16.77
2022-11-12T18:38:16.293Z,17.13
2022-11-12T18:41:37.447Z,16.38
2022-11-12T18:44:58.332Z,15.90
2022-11-12T18:48:19.054Z,16.98
2022-11-12T18:51:40.426Z,14.52
2022-11-12T18:55:01.296Z,16.77
2022-11-12T18:58:22.464Z,17.55
2022-11-12T19:01:43.738Z,17.52
2022-11-12T19:05:05.054Z,14.98
2022-11-12T19:08:26.700Z,16.90
2022-11-12T19:11:47.655Z,18.05
2022-11-12T19:15:08.948Z,16.38
2022-11-12T19:18:29.911Z,16.85
2022-11-12T19:21:50.560Z,17.13
2022-11-12T19:25:11.560Z,17.50
2022-11-12T19:28:32.675Z,15.82
2022-11-12T19:31:53.650Z,16.30
2022-11-12T19:35:14.329Z,15.75
2022-11-12T19:38:34.943Z,15.82
2022-11-12T19:41:55.289Z,15.18
2022-11-12T19:45:15.717Z,15.48
2022-11-12T19:48:36.715Z,14.85
2022-11-12T19:51:57.298Z,15.50
2022-11-12T19:55:18.043Z,14.20
2022-11-12T19:58:39.020Z,16.10
2022-11-12T20:01:59.667Z,14.70
2022-11-12T20:05:20.103Z,14.40
2022-11-12T20:08:41.838Z,15.50
2022-11-12T20:12:02.663Z,14.75
2022-11-12T20:15:23.614Z,14.90
2022-11-12T20:18:47.338Z,16.92
2022-11-12T20:22:11.252Z,16.15
2022-11-12T20:25:32.189Z,15.73
2022-11-12T20:28:53.847Z,15.93
2022-11-12T20:32:14.848Z,17.13
2022-11-12T20:35:36.821Z,16.75
2022-11-12T20:38:58.502Z,16.10
2022-11-12T20:42:18.918Z,16.00
2022-11-12T20:45:39.864Z,16.95
2022-11-12T20:49:00.555Z,16.35
2022-11-12T20:52:21.056Z,17.55
2022-11-12T20:55:41.708Z,16.70
2022-11-12T20:59:02.673Z,17.90
2022-11-12T21:02:23.435Z,17.23
2022-11-12T21:05:43.897Z,17.73
2022-11-12T21:09:04.417Z,18.02
2022-11-12T21:12:24.832Z,15.70
2022-11-12T21:15:46.197Z,15.57
2022-11-12T21:19:06.677Z,15.85
2022-11-12T21:22:27.303Z,17.00
2022-11-12T21:25:48.312Z,16.25
2022-11-12T21:29:08.767Z,16.13
2022-11-12T21:32:29.926Z,16.30
2022-11-12T21:35:53.652Z,15.88
2022-11-12T21:39:14.761Z,14.90
2022-11-12T21:42:35.729Z,15.88
2022-11-12T21:45:56.895Z,16.88
2022-11-12T21:49:17.658Z,15.52
2022-11-12T21:52:38.013Z,16.27
2022-11-12T21:56:06.509Z,16.17
2022-11-12T21:59:27.676Z,15.15
2022-11-12T22:02:48.499Z,16.85
2022-11-12T22:06:09.620Z,16.35
2022-11-12T22:09:30.092Z,16.30
2022-11-12T22:13:19.653Z,16.48
2022-11-12T22:16:31.208Z,16.08
2022-11-12T22:19:52.240Z,16.73
2022-11-12T22:23:12.828Z,16.40
2022-11-12T22:26:33.833Z,16.23
2022-11-12T22:29:54.776Z,17.27
2022-11-12T22:33:15.959Z,16.35
2022-11-12T22:36:36.695Z,16.55
2022-11-12T22:39:57.159Z,17.10
2022-11-12T22:43:18.256Z,15.82
2022-11-12T22:46:39.016Z,15.88
2022-11-12T22:49:59.512Z,17.73
2022-11-12T22:53:20.553Z,17.98
2022-11-12T22:56:41.565Z,16.10
2022-11-12T23:00:02.688Z,17.30
2022-11-12T23:03:23.622Z,16.55
2022-11-12T23:06:44.390Z,15.63
2022-11-12T23:10:05.773Z,16.20
2022-11-12T23:13:27.306Z,16.05
2022-11-12T23:16:48.008Z,16.05
2022-11-12T23:20:09.654Z,15.32
2022-11-12T23:23:30.607Z,14.68
2022-11-12T23:26:51.227Z,15.43
2022-11-12T23:30:12.651Z,15.73
2022-11-12T23:33:33.062Z,15.63
2022-11-12T23:36:54.108Z,13.85
2022-11-12T23:40:15.568Z,14.50
2022-11-12T23:43:36.469Z,13.93
2022-11-12T23:46:57.756Z,13.68
2022-11-12T23:50:18.786Z,13.55
2022-11-12T23:53:40.377Z,14.32
2022-11-12T23:57:00.989Z,13.45
